CheckWX is a tool to help pilots better visualize weather data.  It is not intended as a substitute for an official pre-flight weather briefing.

07:58:06 UTC

CYNE METAR
Norway House Airport
Norway House, Canada
Current

58 mins ago

CYNE 280700Z AUTO 02002KT 9SM BKN110 M10/M11 A2988 RMK SLP136
Observed
Mar-28 @ 07:00 UTC
Wind
  • 020° at 2 KTS
Visibility
9 SM
Flight Rules
VFR
Cloud Levels
  • Broken at 11,000' AGL
Temperature
-10°C / 14°F
Dewpoint
-11°C / 12°F
Humidity
92%
Altimeter
29.88" Hg
Pressure
1011.82 hPa
Previous

2 hours ago

CYNE 280600Z AUTO 00000KT 9SM CLR M09/M10 A2987 RMK SLP132
Observed
Mar-28 @ 06:00 UTC
Visibility
9 SM
Flight Rules
VFR
Cloud Levels
  • Clear skies
Temperature
-9°C / 16°F
Dewpoint
-10°C / 14°F
Humidity
93%
Altimeter
29.87" Hg
Pressure
1011.52 hPa
Previous

3 hours ago

CYNE 280500Z AUTO 06003KT 010V080 9SM CLR M07/M09 A2988 RMK SLP133
Observed
Mar-28 @ 05:00 UTC
Wind
  • 060° at 3 KTS
Visibility
9 SM
Flight Rules
VFR
Cloud Levels
  • Clear skies
Temperature
-7°C / 19°F
Dewpoint
-9°C / 16°F
Humidity
86%
Altimeter
29.88" Hg
Pressure
1011.82 hPa